sensor_id;sensor_type;location;lat;lon;timestamp;pressure;altitude;pressure_sealevel;temperature;humidity
47710;BME280;33473;51.640;5.892;2023-02-19T00:07:28;101600;;;13.9;68.0
47710;BME280;33473;51.640;5.892;2023-02-19T00:20:48;101600;;;13.4;69.0
47710;BME280;33473;51.640;5.892;2023-02-19T00:34:07;101600;;;13.6;68.0
47710;BME280;33473;51.640;5.892;2023-02-19T00:47:27;101600;;;13.5;68.0
47710;BME280;33473;51.640;5.892;2023-02-19T01:00:47;101600;;;13.2;68.0
47710;BME280;33473;51.640;5.892;2023-02-19T01:14:06;101600;;;13.6;66.0
47710;BME280;33473;51.640;5.892;2023-02-19T01:27:26;101700;;;13.5;66.0
47710;BME280;33473;51.640;5.892;2023-02-19T01:40:46;101700;;;13.3;66.0
47710;BME280;33473;51.640;5.892;2023-02-19T01:54:05;101700;;;13.5;64.0
47710;BME280;33473;51.640;5.892;2023-02-19T02:07:25;101700;;;13.2;65.0
47710;BME280;33473;51.640;5.892;2023-02-19T02:20:45;101700;;;13.3;64.0
47710;BME280;33473;51.640;5.892;2023-02-19T02:34:04;101700;;;13.4;64.0
47710;BME280;33473;51.640;5.892;2023-02-19T02:47:24;101700;;;13.2;65.0
47710;BME280;33473;51.640;5.892;2023-02-19T03:00:44;101700;;;12.6;66.0
47710;BME280;33473;51.640;5.892;2023-02-19T03:14:03;101700;;;12.8;66.0
47710;BME280;33473;51.640;5.892;2023-02-19T03:27:23;101700;;;12.9;66.0
47710;BME280;33473;51.640;5.892;2023-02-19T03:40:43;101700;;;12.8;67.0
47710;BME280;33473;51.640;5.892;2023-02-19T03:54:02;101700;;;12.7;66.0
47710;BME280;33473;51.640;5.892;2023-02-19T04:07:22;101700;;;12.8;65.0
47710;BME280;33473;51.640;5.892;2023-02-19T04:20:42;101800;;;13.0;65.0
47710;BME280;33473;51.640;5.892;2023-02-19T04:34:01;101800;;;12.8;67.0
47710;BME280;33473;51.640;5.892;2023-02-19T04:47:21;101800;;;12.8;67.0
47710;BME280;33473;51.640;5.892;2023-02-19T05:00:41;101800;;;12.9;66.0
47710;BME280;33473;51.640;5.892;2023-02-19T05:14:00;101800;;;12.4;68.0
47710;BME280;33473;51.640;5.892;2023-02-19T05:27:20;101900;;;12.2;69.0
47710;BME280;33473;51.640;5.892;2023-02-19T05:40:40;101900;;;12.7;67.0
47710;BME280;33473;51.640;5.892;2023-02-19T05:53:59;101900;;;12.4;68.0
47710;BME280;33473;51.640;5.892;2023-02-19T06:07:19;101900;;;12.8;67.0
47710;BME280;33473;51.640;5.892;2023-02-19T06:20:39;101900;;;12.8;67.0
47710;BME280;33473;51.640;5.892;2023-02-19T06:33:58;101900;;;12.7;67.0
47710;BME280;33473;51.640;5.892;2023-02-19T06:47:18;101900;;;12.5;67.0
47710;BME280;33473;51.640;5.892;2023-02-19T07:00:38;101900;;;12.3;68.0
47710;BME280;33473;51.640;5.892;2023-02-19T07:13:58;102000;;;12.4;67.0
47710;BME280;33473;51.640;5.892;2023-02-19T07:27:17;102000;;;12.9;66.0
47710;BME280;33473;51.640;5.892;2023-02-19T07:40:37;102000;;;12.9;66.0
47710;BME280;33473;51.640;5.892;2023-02-19T07:53:57;102000;;;12.8;66.0
47710;BME280;33473;51.640;5.892;2023-02-19T08:07:16;102100;;;13.4;66.0
47710;BME280;33473;51.640;5.892;2023-02-19T08:20:36;102100;;;12.4;70.0
47710;BME280;33473;51.640;5.892;2023-02-19T08:33:56;102100;;;12.4;70.0
47710;BME280;33473;51.640;5.892;2023-02-19T08:47:15;102100;;;12.6;69.0
47710;BME280;33473;51.640;5.892;2023-02-19T09:00:35;102100;;;13.0;67.0
47710;BME280;33473;51.640;5.892;2023-02-19T09:13:55;102100;;;12.5;69.0
47710;BME280;33473;51.640;5.892;2023-02-19T09:27:14;102100;;;12.8;70.0
47710;BME280;33473;51.640;5.892;2023-02-19T09:40:34;102100;;;13.0;69.0
47710;BME280;33473;51.640;5.892;2023-02-19T09:53:54;102200;;;12.6;69.0
47710;BME280;33473;51.640;5.892;2023-02-19T10:07:14;102200;;;12.3;71.0
47710;BME280;33473;51.640;5.892;2023-02-19T10:20:33;102200;;;12.3;72.0
47710;BME280;33473;51.640;5.892;2023-02-19T10:33:53;102300;;;12.8;70.0
47710;BME280;33473;51.640;5.892;2023-02-19T10:47:13;102300;;;12.3;69.0
47710;BME280;33473;51.640;5.892;2023-02-19T11:00:32;102300;;;13.2;67.0
47710;BME280;33473;51.640;5.892;2023-02-19T11:13:52;102300;;;14.1;65.0
47710;BME280;33473;51.640;5.892;2023-02-19T11:27:12;102300;;;13.5;64.0
47710;BME280;33473;51.640;5.892;2023-02-19T11:40:31;102300;;;13.5;63.0
47710;BME280;33473;51.640;5.892;2023-02-19T11:53:51;102300;;;13.5;63.0
47710;BME280;33473;51.640;5.892;2023-02-19T12:07:11;102300;;;13.5;63.0
47710;BME280;33473;51.640;5.892;2023-02-19T12:20:30;102300;;;12.6;63.0
47710;BME280;33473;51.640;5.892;2023-02-19T12:33:50;102300;;;13.1;63.0
47710;BME280;33473;51.640;5.892;2023-02-19T12:47:10;102300;;;13.3;60.0
47710;BME280;33473;51.640;5.892;2023-02-19T13:00:30;102300;;;13.3;60.0
47710;BME280;33473;51.640;5.892;2023-02-19T13:13:49;102300;;;12.8;60.0
47710;BME280;33473;51.640;5.892;2023-02-19T13:27:09;102300;;;13.8;59.0
47710;BME280;33473;51.640;5.892;2023-02-19T13:40:29;102300;;;12.6;60.0
47710;BME280;33473;51.640;5.892;2023-02-19T13:53:48;102400;;;12.7;59.0
47710;BME280;33473;51.640;5.892;2023-02-19T14:07:08;102400;;;12.9;57.0
47710;BME280;33473;51.640;5.892;2023-02-19T14:20:28;102400;;;12.5;58.0
47710;BME280;33473;51.640;5.892;2023-02-19T14:33:47;102400;;;12.3;59.0
47710;BME280;33473;51.640;5.892;2023-02-19T14:47:07;102400;;;12.4;59.0
47710;BME280;33473;51.640;5.892;2023-02-19T15:00:27;102400;;;12.6;58.0
47710;BME280;33473;51.640;5.892;2023-02-19T15:13:47;102300;;;12.5;59.0
47710;BME280;33473;51.640;5.892;2023-02-19T15:27:06;102300;;;12.6;60.0
47710;BME280;33473;51.640;5.892;2023-02-19T15:40:26;102300;;;12.2;62.0
47710;BME280;33473;51.640;5.892;2023-02-19T15:53:45;102400;;;12.1;63.0
47710;BME280;33473;51.640;5.892;2023-02-19T16:07:05;102400;;;12.2;63.0
47710;BME280;33473;51.640;5.892;2023-02-19T16:20:25;102400;;;11.4;65.0
47710;BME280;33473;51.640;5.892;2023-02-19T16:33:44;102400;;;11.8;65.0
47710;BME280;33473;51.640;5.892;2023-02-19T16:47:04;102500;;;11.2;66.0
47710;BME280;33473;51.640;5.892;2023-02-19T17:00:24;102500;;;11.5;64.0
47710;BME280;33473;51.640;5.892;2023-02-19T17:13:43;102500;;;11.4;64.0
47710;BME280;33473;51.640;5.892;2023-02-19T17:27:03;102500;;;10.7;67.0
47710;BME280;33473;51.640;5.892;2023-02-19T17:40:23;102500;;;11.6;64.0
47710;BME280;33473;51.640;5.892;2023-02-19T17:53:42;102500;;;12.0;62.0
47710;BME280;33473;51.640;5.892;2023-02-19T18:07:02;102500;;;11.9;62.0
47710;BME280;33473;51.640;5.892;2023-02-19T18:20:22;102500;;;11.3;63.0
47710;BME280;33473;51.640;5.892;2023-02-19T18:33:41;102500;;;11.4;62.0
47710;BME280;33473;51.640;5.892;2023-02-19T18:47:01;102500;;;11.0;63.0
47710;BME280;33473;51.640;5.892;2023-02-19T19:00:21;102500;;;11.3;61.0
47710;BME280;33473;51.640;5.892;2023-02-19T19:13:41;102500;;;12.1;59.0
47710;BME280;33473;51.640;5.892;2023-02-19T19:27:00;102500;;;11.0;61.0
47710;BME280;33473;51.640;5.892;2023-02-19T19:40:20;102500;;;10.3;62.0
47710;BME280;33473;51.640;5.892;2023-02-19T19:53:40;102500;;;10.6;60.0
47710;BME280;33473;51.640;5.892;2023-02-19T20:06:59;102600;;;10.4;61.0
47710;BME280;33473;51.640;5.892;2023-02-19T20:20:19;102600;;;10.4;60.0
47710;BME280;33473;51.640;5.892;2023-02-19T20:33:39;102600;;;10.1;61.0
47710;BME280;33473;51.640;5.892;2023-02-19T20:46:58;102600;;;10.4;60.0
47710;BME280;33473;51.640;5.892;2023-02-19T21:00:18;102600;;;10.4;59.0
47710;BME280;33473;51.640;5.892;2023-02-19T21:13:38;102600;;;10.5;58.0
47710;BME280;33473;51.640;5.892;2023-02-19T21:26:57;102600;;;10.5;57.0
47710;BME280;33473;51.640;5.892;2023-02-19T21:40:17;102500;;;10.5;57.0
47710;BME280;33473;51.640;5.892;2023-02-19T21:53:37;102500;;;10.4;57.0
47710;BME280;33473;51.640;5.892;2023-02-19T22:06:56;102500;;;10.4;57.0
47710;BME280;33473;51.640;5.892;2023-02-19T22:20:16;102600;;;10.2;57.0
47710;BME280;33473;51.640;5.892;2023-02-19T22:33:36;102500;;;10.2;57.0
47710;BME280;33473;51.640;5.892;2023-02-19T22:46:55;102500;;;10.1;57.0
47710;BME280;33473;51.640;5.892;2023-02-19T23:00:15;102500;;;10.0;57.0
47710;BME280;33473;51.640;5.892;2023-02-19T23:13:35;102500;;;9.9;58.0
47710;BME280;33473;51.640;5.892;2023-02-19T23:26:55;102500;;;10.0;58.0
47710;BME280;33473;51.640;5.892;2023-02-19T23:40:14;102500;;;10.0;58.0
47710;BME280;33473;51.640;5.892;2023-02-19T23:53:34;102500;;;10.1;59.0
